Terminal Aerodrome Forecast
Issued by NWS Omaha/Valley, NE

Home | Current Version | Previous Version | Graphics & Text | Print | Product List | Glossary On
Versions: 1 2 3 4 5 6 7 8 9 10 11 12 13 14 15 16 17 18 19 20 21 22 23 24 25 26 27 28 29 30 31 32 33 34 35 36 37 38 39 40 41 42 43 44 45 46 47 48 49 50
000
FTUS43 KOAX 040320 AAC
TAFOFK
TAF AMD
KOFK 040320Z 0403/0424 02013G20KT P6SM VCTS SCT030CB BKN090
     FM040700 02012KT P6SM SCT100
     FM041600 06013G20KT P6SM BKN070 PROB30 0418/0424 3SM TSRA
      BKN025CB=

USA.gov is the U.S. government's official web portal to all federal, state and local government web resources and services.